Time;durP1;ratioP1;P1;durP2;ratioP2;P2;SDS_P1;SDS_P2;PMS_P1;PMS_P2;Temp;Humidity;BMP_temperature;BMP_pressure;BME280_temperature;BME280_humidity;BME280_pressure;Samples;Min_cycle;Max_cycle;Signal;HPM_P1;HPM_P2
2022/12/27 00:00:35;;;;;;;7.78;1.60;;;;;;;;;;5050807;28;20041;-77
2022/12/27 00:03:01;;;;;;;10.68;1.50;;;;;;;;;;5052845;28;20116;-76
2022/12/27 00:05:27;;;;;;;12.38;1.90;;;;;;;;;;5050884;28;20190;-77
2022/12/27 00:07:53;;;;;;;9.45;1.67;;;;;;;;;;5051177;28;20040;-77
2022/12/27 00:10:19;;;;;;;9.52;1.75;;;;;;;;;;5050585;28;20048;-77
2022/12/27 00:12:45;;;;;;;11.40;1.60;;;;;;;;;;5050906;28;20076;-77
2022/12/27 00:15:11;;;;;;;7.88;1.88;;;;;;;;;;5033780;28;20045;-77
2022/12/27 00:17:37;;;;;;;13.50;2.67;;;;;;;;;;5033849;28;20127;-77
2022/12/27 00:20:04;;;;;;;10.07;1.80;;;;;;;;;;5051008;28;20116;-77
2022/12/27 00:22:30;;;;;;;12.05;3.58;;;;;;;;;;5050780;28;20464;-77
2022/12/27 00:24:56;;;;;;;11.82;2.10;;;;;;;;;;5051000;28;20045;-77
2022/12/27 00:27:22;;;;;;;12.75;2.78;;;;;;;;;;5050617;28;20064;-77
2022/12/27 00:29:48;;;;;;;12.35;2.55;;;;;;;;;;5055965;28;20040;-77
2022/12/27 00:32:15;;;;;;;12.50;2.15;;;;;;;;;;5070876;28;20064;-77
2022/12/27 00:34:41;;;;;;;11.25;2.75;;;;;;;;;;5070707;28;20047;-77
2022/12/27 00:37:07;;;;;;;11.65;2.38;;;;;;;;;;5072298;28;20049;-77
2022/12/27 00:39:33;;;;;;;8.13;2.17;;;;;;;;;;5056662;28;20036;-77
2022/12/27 00:41:59;;;;;;;10.45;2.20;;;;;;;;;;5063837;28;20490;-77
2022/12/27 00:44:25;;;;;;;7.38;1.90;;;;;;;;;;5063881;28;20113;-77
2022/12/27 00:46:51;;;;;;;8.63;2.10;;;;;;;;;;5070775;28;20044;-77
2022/12/27 00:49:18;;;;;;;9.55;2.10;;;;;;;;;;5072286;28;20040;-77
2022/12/27 00:51:44;;;;;;;14.80;2.40;;;;;;;;;;5056444;28;20044;-77
2022/12/27 00:54:10;;;;;;;10.93;2.20;;;;;;;;;;5053657;28;20098;-77
2022/12/27 00:56:36;;;;;;;8.38;1.58;;;;;;;;;;5069010;28;20101;-77
2022/12/27 00:59:03;;;;;;;10.13;2.15;;;;;;;;;;5057780;28;20043;-77
2022/12/27 01:01:30;;;;;;;11.15;2.05;;;;;;;;;;5071489;28;20086;-77
2022/12/27 01:03:57;;;;;;;5.82;1.80;;;;;;;;;;5070675;28;20142;-77
2022/12/27 01:06:24;;;;;;;10.10;1.73;;;;;;;;;;5041771;28;20048;-77
2022/12/27 01:08:51;;;;;;;12.93;2.10;;;;;;;;;;5068746;28;20041;-77
2022/12/27 01:11:18;;;;;;;10.18;1.92;;;;;;;;;;5060052;28;20056;-77
2022/12/27 01:13:44;;;;;;;10.88;2.00;;;;;;;;;;5049971;28;20040;-77
2022/12/27 01:16:12;;;;;;;14.55;2.20;;;;;;;;;;5053918;28;20098;-77
2022/12/27 01:18:38;;;;;;;6.70;1.80;;;;;;;;;;5069366;28;20044;-77
2022/12/27 01:21:05;;;;;;;13.13;2.60;;;;;;;;;;5057240;28;20036;-77
2022/12/27 01:23:31;;;;;;;10.48;2.05;;;;;;;;;;5053857;28;20135;-77
2022/12/27 01:26:01;;;;;;;9.85;1.73;;;;;;;;;;5070245;28;20040;-77
2022/12/27 01:28:27;;;;;;;10.23;1.48;;;;;;;;;;5056833;28;20079;-77
2022/12/27 01:30:53;;;;;;;7.25;1.95;;;;;;;;;;5059917;28;20053;-77
2022/12/27 01:33:19;;;;;;;11.15;1.98;;;;;;;;;;5090434;28;20115;-77
2022/12/27 01:35:45;;;;;;;9.80;1.85;;;;;;;;;;5063295;28;20041;-77
2022/12/27 01:38:11;;;;;;;11.77;2.13;;;;;;;;;;5067871;28;20064;-78
2022/12/27 01:40:37;;;;;;;10.13;2.22;;;;;;;;;;5036826;28;20083;-77
2022/12/27 01:43:04;;;;;;;10.57;1.85;;;;;;;;;;5055828;28;20041;-77
2022/12/27 01:45:34;;;;;;;14.45;2.55;;;;;;;;;;5049131;28;20137;-77
2022/12/27 01:48:03;;;;;;;9.30;1.60;;;;;;;;;;5053618;28;20163;-77
2022/12/27 01:50:29;;;;;;;13.32;2.53;;;;;;;;;;5060596;28;20105;-77
2022/12/27 01:53:07;;;;;;;11.38;1.60;;;;;;;;;;5074829;28;20044;-77
2022/12/27 01:55:39;;;;;;;10.90;1.73;;;;;;;;;;5040147;28;20122;-77
2022/12/27 01:58:26;;;;;;;14.73;1.77;;;;;;;;;;5054783;28;20056;-77
2022/12/27 02:00:52;;;;;;;12.75;2.22;;;;;;;;;;5041393;28;20123;-77
2022/12/27 02:03:21;;;;;;;7.28;1.73;;;;;;;;;;5067361;28;20188;-77
2022/12/27 02:05:48;;;;;;;7.60;1.52;;;;;;;;;;5059942;28;20048;-77
2022/12/27 02:08:26;;;;;;;14.75;2.05;;;;;;;;;;5043480;28;20037;-77
2022/12/27 02:10:53;;;;;;;12.18;2.25;;;;;;;;;;5029954;28;20044;-77
2022/12/27 02:13:19;;;;;;;9.38;1.60;;;;;;;;;;5073072;28;20489;-77
2022/12/27 02:15:45;;;;;;;12.60;2.05;;;;;;;;;;5056339;28;20045;-77
2022/12/27 02:18:11;;;;;;;8.32;1.63;;;;;;;;;;5056522;28;20044;-77
2022/12/27 02:20:44;;;;;;;9.25;1.88;;;;;;;;;;5072486;28;20032;-77
2022/12/27 02:26:21;;;;;;;14.82;2.00;;;;;;;;;;5045501;28;20559;-77
2022/12/27 02:28:47;;;;;;;9.25;1.85;;;;;;;;;;5059517;28;20047;-77
2022/12/27 02:31:16;;;;;;;13.18;2.55;;;;;;;;;;5039614;28;20053;-77
2022/12/27 02:33:45;;;;;;;13.25;2.08;;;;;;;;;;5040011;28;20125;-77
2022/12/27 02:36:16;;;;;;;9.00;1.77;;;;;;;;;;5055362;28;20053;-77
2022/12/27 02:38:44;;;;;;;12.75;2.10;;;;;;;;;;5071608;28;20157;-77
2022/12/27 02:55:17;;;;;;;8.55;1.80;;;;;;;;;;5052310;28;20067;-77
2022/12/27 02:57:59;;;;;;;13.20;1.83;;;;;;;;;;5052045;28;20132;-77
2022/12/27 03:03:22;;;;;;;12.90;1.75;;;;;;;;;;5048558;28;20045;-77
2022/12/27 03:08:49;;;;;;;14.80;2.75;;;;;;;;;;5084096;28;20041;-78
2022/12/27 03:17:10;;;;;;;9.25;1.83;;;;;;;;;;5083182;28;20524;-77
2022/12/27 03:25:26;;;;;;;12.82;1.40;;;;;;;;;;5085635;28;19926;-77
2022/12/27 03:33:25;;;;;;;9.18;1.60;;;;;;;;;;5051512;28;20091;-77
2022/12/27 03:39:02;;;;;;;8.65;1.80;;;;;;;;;;5052537;28;20053;-77
2022/12/27 03:44:32;;;;;;;7.55;1.70;;;;;;;;;;5051515;28;20043;-77
2022/12/27 03:47:07;;;;;;;15.32;2.03;;;;;;;;;;5052520;28;20040;-77
2022/12/27 03:49:36;;;;;;;9.80;1.80;;;;;;;;;;5051195;28;20075;-77
2022/12/27 03:52:21;;;;;;;10.75;1.85;;;;;;;;;;5050937;28;20045;-77
2022/12/27 03:54:48;;;;;;;11.52;1.80;;;;;;;;;;5050937;28;20374;-77
2022/12/27 03:57:16;;;;;;;11.52;1.98;;;;;;;;;;5051467;28;20029;-77
2022/12/27 03:59:42;;;;;;;10.02;1.63;;;;;;;;;;5052262;28;20529;-77
2022/12/27 04:02:08;;;;;;;9.98;1.60;;;;;;;;;;5051034;28;20041;-77
2022/12/27 04:04:34;;;;;;;13.80;1.63;;;;;;;;;;5051313;28;20513;-77
2022/12/27 04:07:00;;;;;;;11.73;1.60;;;;;;;;;;5050991;28;20040;-78
2022/12/27 04:36:53;;;;;;;11.13;1.90;;;;;;;;;;5050555;28;20132;-77
2022/12/27 04:39:19;;;;;;;15.20;2.00;;;;;;;;;;5050831;28;20043;-77
2022/12/27 04:55:58;;;;;;;13.85;1.83;;;;;;;;;;5050384;28;20414;-77
2022/12/27 04:58:25;;;;;;;7.72;1.90;;;;;;;;;;5050525;28;20041;-77
2022/12/27 05:03:35;;;;;;;8.45;1.95;;;;;;;;;;5043227;28;20075;-77
2022/12/27 05:06:02;;;;;;;9.52;1.98;;;;;;;;;;5053953;28;20107;-77
2022/12/27 05:13:58;;;;;;;9.90;2.00;;;;;;;;;;5043037;28;20049;-77
2022/12/27 05:16:24;;;;;;;14.43;2.30;;;;;;;;;;5054640;28;20033;-77
2022/12/27 05:18:51;;;;;;;15.35;2.25;;;;;;;;;;5054677;28;20394;-77
2022/12/27 05:21:17;;;;;;;11.02;2.95;;;;;;;;;;5054356;28;20044;-78
2022/12/27 05:26:29;;;;;;;7.20;1.95;;;;;;;;;;5054033;28;20044;-77
2022/12/27 05:28:56;;;;;;;10.25;2.28;;;;;;;;;;5053870;28;20397;-77
2022/12/27 05:31:23;;;;;;;16.60;2.40;;;;;;;;;;5037084;28;20060;-77
2022/12/27 05:33:50;;;;;;;10.48;1.90;;;;;;;;;;5054322;28;20470;-77
2022/12/27 05:36:16;;;;;;;11.13;2.03;;;;;;;;;;5054902;28;20052;-78
2022/12/27 05:38:42;;;;;;;8.57;1.92;;;;;;;;;;5053774;28;20045;-77
2022/12/27 05:41:09;;;;;;;10.85;2.20;;;;;;;;;;5053463;28;20044;-77
2022/12/27 05:43:35;;;;;;;13.73;2.22;;;;;;;;;;5053775;28;20044;-77
2022/12/27 05:46:05;;;;;;;16.25;2.38;;;;;;;;;;5053521;28;20044;-77
2022/12/27 05:48:31;;;;;;;12.20;1.90;;;;;;;;;;5053702;28;20049;-77
2022/12/27 05:50:57;;;;;;;14.63;2.20;;;;;;;;;;5053158;28;20048;-77
2022/12/27 05:53:23;;;;;;;13.43;2.17;;;;;;;;;;5053498;28;20037;-77
2022/12/27 05:55:53;;;;;;;13.52;1.90;;;;;;;;;;5053915;28;20033;-76
2022/12/27 05:58:19;;;;;;;7.82;1.48;;;;;;;;;;5053598;28;20102;-76
2022/12/27 06:00:45;;;;;;;8.02;1.80;;;;;;;;;;5054771;28;20401;-77
2022/12/27 06:03:11;;;;;;;7.72;1.58;;;;;;;;;;5053234;28;20371;-77
2022/12/27 06:05:37;;;;;;;11.18;1.75;;;;;;;;;;5033851;28;20515;-77
2022/12/27 06:08:03;;;;;;;11.20;1.95;;;;;;;;;;5036816;28;20044;-77
2022/12/27 06:10:29;;;;;;;7.32;1.90;;;;;;;;;;5053483;28;20439;-77
2022/12/27 06:12:55;;;;;;;10.38;2.10;;;;;;;;;;5036095;28;20076;-77
2022/12/27 06:15:21;;;;;;;7.03;1.92;;;;;;;;;;5054098;28;20029;-77
2022/12/27 06:17:47;;;;;;;8.95;1.90;;;;;;;;;;5054254;28;20051;-76
2022/12/27 06:20:14;;;;;;;17.83;2.70;;;;;;;;;;5052821;28;20056;-76
2022/12/27 06:22:40;;;;;;;11.32;2.00;;;;;;;;;;5069970;28;20044;-77
2022/12/27 06:25:06;;;;;;;10.43;2.15;;;;;;;;;;5052864;28;20045;-77
2022/12/27 06:27:33;;;;;;;12.05;2.40;;;;;;;;;;5053324;28;20044;-76
2022/12/27 06:29:59;;;;;;;12.30;2.40;;;;;;;;;;5052951;28;20045;-77
2022/12/27 06:32:25;;;;;;;10.07;1.92;;;;;;;;;;5052651;28;20048;-77
2022/12/27 06:34:51;;;;;;;11.20;2.00;;;;;;;;;;5052792;28;20037;-76
2022/12/27 06:37:17;;;;;;;15.25;2.38;;;;;;;;;;5035892;28;20047;-78
2022/12/27 06:39:43;;;;;;;14.60;2.10;;;;;;;;;;5053027;28;20044;-77
2022/12/27 06:42:10;;;;;;;13.68;2.30;;;;;;;;;;5052182;28;20047;-78
2022/12/27 06:44:36;;;;;;;13.35;2.58;;;;;;;;;;5054125;28;20505;-77
2022/12/27 06:47:02;;;;;;;13.38;2.28;;;;;;;;;;5069288;28;20383;-77
2022/12/27 06:49:28;;;;;;;11.82;2.40;;;;;;;;;;5052508;28;20060;-77
2022/12/27 06:51:55;;;;;;;16.17;2.63;;;;;;;;;;5052470;28;20067;-77
2022/12/27 06:54:21;;;;;;;18.13;2.70;;;;;;;;;;5052171;28;20485;-77
2022/12/27 06:56:47;;;;;;;13.30;2.17;;;;;;;;;;5036386;28;20504;-77
2022/12/27 06:59:13;;;;;;;17.70;3.53;;;;;;;;;;5052358;28;20466;-78
2022/12/27 07:01:39;;;;;;;8.35;2.33;;;;;;;;;;5052195;28;20045;-77
2022/12/27 07:04:05;;;;;;;13.68;2.05;;;;;;;;;;5052029;28;20044;-77
2022/12/27 07:06:32;;;;;;;17.08;2.00;;;;;;;;;;5052523;28;20036;-77
2022/12/27 07:08:59;;;;;;;11.00;1.77;;;;;;;;;;5052084;28;20049;-77
2022/12/27 07:11:25;;;;;;;12.50;2.15;;;;;;;;;;5052822;28;20044;-77
2022/12/27 07:13:52;;;;;;;12.40;2.63;;;;;;;;;;5051863;28;20041;-77
2022/12/27 07:16:20;;;;;;;10.82;1.83;;;;;;;;;;5051763;28;20044;-77
2022/12/27 07:18:46;;;;;;;10.25;2.00;;;;;;;;;;5051571;28;20095;-77
2022/12/27 07:21:14;;;;;;;9.02;1.83;;;;;;;;;;5051566;28;20044;-77
2022/12/27 07:23:40;;;;;;;9.90;1.65;;;;;;;;;;5051927;28;20033;-77
2022/12/27 07:26:10;;;;;;;10.40;1.95;;;;;;;;;;5052970;28;20048;-77
2022/12/27 07:28:37;;;;;;;11.85;2.03;;;;;;;;;;5052842;28;20071;-77
2022/12/27 07:31:11;;;;;;;10.25;1.92;;;;;;;;;;5051854;28;20494;-77
2022/12/27 07:33:37;;;;;;;9.73;1.95;;;;;;;;;;5049427;28;20282;-78
2022/12/27 07:36:05;;;;;;;12.38;2.25;;;;;;;;;;5051810;28;20037;-77
2022/12/27 07:38:31;;;;;;;8.73;1.80;;;;;;;;;;5051724;28;20041;-78
2022/12/27 07:40:58;;;;;;;10.98;1.83;;;;;;;;;;5052612;28;20123;-78
2022/12/27 07:43:25;;;;;;;13.35;2.40;;;;;;;;;;5052956;28;20057;-78
2022/12/27 07:45:51;;;;;;;12.02;2.20;;;;;;;;;;5035219;28;20080;-78
2022/12/27 07:48:17;;;;;;;10.95;2.35;;;;;;;;;;5052516;28;20426;-78
2022/12/27 07:50:43;;;;;;;12.57;2.30;;;;;;;;;;5051549;28;20142;-78
2022/12/27 07:53:09;;;;;;;13.40;2.25;;;;;;;;;;5053017;28;20037;-78
2022/12/27 07:55:41;;;;;;;13.70;2.53;;;;;;;;;;5051433;28;20051;-77
2022/12/27 07:58:07;;;;;;;7.00;1.83;;;;;;;;;;5051753;28;20041;-77
2022/12/27 08:00:33;;;;;;;9.93;1.95;;;;;;;;;;5050992;28;20041;-78
2022/12/27 08:03:02;;;;;;;17.60;2.53;;;;;;;;;;5051416;28;20041;-78
2022/12/27 08:05:29;;;;;;;17.13;2.35;;;;;;;;;;5034269;28;20048;-78
2022/12/27 08:07:56;;;;;;;11.90;2.30;;;;;;;;;;5051208;28;20059;-78
2022/12/27 08:10:22;;;;;;;13.25;2.42;;;;;;;;;;5034542;28;20045;-78
2022/12/27 08:12:48;;;;;;;10.38;2.55;;;;;;;;;;5051280;28;20045;-78
2022/12/27 08:15:14;;;;;;;13.45;2.50;;;;;;;;;;5050993;28;20040;-78
2022/12/27 08:17:40;;;;;;;11.35;2.40;;;;;;;;;;5051819;28;20041;-77
2022/12/27 08:20:06;;;;;;;11.07;2.33;;;;;;;;;;5034168;28;20048;-77
2022/12/27 08:22:32;;;;;;;9.88;2.13;;;;;;;;;;5050937;28;20528;-78
2022/12/27 08:24:59;;;;;;;9.18;1.90;;;;;;;;;;5017953;28;20047;-76
2022/12/27 08:27:25;;;;;;;11.73;2.08;;;;;;;;;;5050903;28;20047;-77
2022/12/27 08:29:53;;;;;;;13.95;2.30;;;;;;;;;;5034917;28;20044;-78
2022/12/27 08:32:19;;;;;;;8.93;2.50;;;;;;;;;;5051809;28;20107;-77
2022/12/27 08:34:45;;;;;;;12.52;2.40;;;;;;;;;;5048887;28;20044;-77
2022/12/27 08:37:12;;;;;;;16.70;2.65;;;;;;;;;;5054026;28;20033;-76
2022/12/27 08:39:38;;;;;;;14.52;2.00;;;;;;;;;;5056177;28;20096;-79
2022/12/27 08:42:07;;;;;;;18.92;3.30;;;;;;;;;;5056204;28;20041;-81
2022/12/27 08:44:33;;;;;;;14.93;2.55;;;;;;;;;;5054548;28;20102;-78
2022/12/27 08:46:59;;;;;;;16.13;2.72;;;;;;;;;;5055147;28;20123;-78
2022/12/27 08:49:25;;;;;;;9.20;2.03;;;;;;;;;;5057798;28;20036;-78
2022/12/27 08:51:51;;;;;;;13.05;2.30;;;;;;;;;;5050380;28;20494;-79
2022/12/27 08:54:17;;;;;;;11.52;2.03;;;;;;;;;;5055148;28;20052;-78
2022/12/27 08:56:43;;;;;;;12.98;2.30;;;;;;;;;;5055706;28;20047;-78
2022/12/27 08:59:09;;;;;;;11.35;2.03;;;;;;;;;;5055444;28;20040;-78
2022/12/27 09:01:35;;;;;;;8.10;2.03;;;;;;;;;;5054506;28;20040;-79
2022/12/27 09:04:01;;;;;;;10.73;2.00;;;;;;;;;;5054579;28;20038;-77
2022/12/27 09:06:27;;;;;;;7.18;1.77;;;;;;;;;;5055313;28;20041;-78
2022/12/27 09:08:54;;;;;;;6.55;1.55;;;;;;;;;;5054652;28;20532;-78
2022/12/27 09:11:31;;;;;;;9.18;1.70;;;;;;;;;;5054181;28;20520;-78
2022/12/27 09:13:59;;;;;;;7.03;1.40;;;;;;;;;;5054582;28;20037;-78
2022/12/27 09:16:26;;;;;;;10.20;1.67;;;;;;;;;;5054018;28;20510;-77
2022/12/27 09:18:53;;;;;;;9.80;1.95;;;;;;;;;;5054481;28;20044;-77
2022/12/27 09:21:20;;;;;;;8.10;1.67;;;;;;;;;;5055386;28;20111;-77
2022/12/27 09:23:47;;;;;;;7.60;1.67;;;;;;;;;;5055504;28;20029;-76
2022/12/27 09:26:17;;;;;;;11.20;1.63;;;;;;;;;;5038109;28;20044;-78
2022/12/27 09:28:43;;;;;;;8.75;1.98;;;;;;;;;;5055022;28;20041;-78
2022/12/27 09:31:10;;;;;;;10.35;1.85;;;;;;;;;;5053785;28;20052;-78
2022/12/27 09:33:36;;;;;;;7.38;1.70;;;;;;;;;;5034885;28;20108;-78
2022/12/27 09:36:10;;;;;;;7.60;1.63;;;;;;;;;;5053974;28;20072;-78
2022/12/27 09:38:36;;;;;;;8.73;1.92;;;;;;;;;;5037100;28;20115;-78
2022/12/27 09:41:12;;;;;;;7.57;1.88;;;;;;;;;;5053860;28;20037;-78
2022/12/27 09:43:47;;;;;;;9.32;1.95;;;;;;;;;;5053645;28;20081;-78
2022/12/27 09:46:17;;;;;;;8.97;1.60;;;;;;;;;;5053748;28;20045;-78
2022/12/27 09:48:43;;;;;;;9.50;2.10;;;;;;;;;;5053327;28;20630;-78
2022/12/27 09:51:15;;;;;;;12.02;1.80;;;;;;;;;;5037086;28;20068;-78
2022/12/27 09:53:44;;;;;;;7.30;2.10;;;;;;;;;;5053399;28;20045;-76
2022/12/27 09:56:12;;;;;;;8.27;2.08;;;;;;;;;;5053707;28;20041;-76
2022/12/27 09:58:52;;;;;;;7.32;1.88;;;;;;;;;;5053419;28;20096;-75
2022/12/27 10:01:32;;;;;;;10.07;2.00;;;;;;;;;;5054956;28;20044;-75
2022/12/27 10:03:58;;;;;;;7.28;2.10;;;;;;;;;;5053523;28;20116;-75
2022/12/27 10:06:24;;;;;;;9.23;1.88;;;;;;;;;;5053134;28;20033;-75
2022/12/27 10:09:19;;;;;;;9.77;1.90;;;;;;;;;;5053000;28;20041;-78
2022/12/27 10:11:57;;;;;;;8.82;1.77;;;;;;;;;;5053007;28;20478;-78
2022/12/27 10:14:32;;;;;;;10.82;1.77;;;;;;;;;;5053767;28;20072;-78
2022/12/27 10:17:04;;;;;;;10.43;2.20;;;;;;;;;;5053054;28;20037;-78
2022/12/27 10:19:46;;;;;;;9.27;2.40;;;;;;;;;;5053117;28;20367;-78
2022/12/27 10:22:23;;;;;;;8.43;2.28;;;;;;;;;;5053303;28;20452;-78
2022/12/27 10:24:56;;;;;;;10.32;1.88;;;;;;;;;;5036068;28;20049;-77
2022/12/27 10:27:24;;;;;;;7.32;1.95;;;;;;;;;;5053032;28;20056;-77
2022/12/27 10:29:54;;;;;;;9.07;1.80;;;;;;;;;;5053866;28;20067;-77
2022/12/27 10:32:20;;;;;;;9.27;2.05;;;;;;;;;;5052718;28;20049;-77
2022/12/27 10:34:49;;;;;;;6.25;1.90;;;;;;;;;;5036263;28;20045;-77
2022/12/27 10:37:15;;;;;;;9.10;2.20;;;;;;;;;;5052573;28;20116;-77
2022/12/27 10:39:42;;;;;;;9.85;2.33;;;;;;;;;;5052687;28;20059;-77
2022/12/27 10:42:31;;;;;;;8.93;1.98;;;;;;;;;;5052879;28;20045;-77
2022/12/27 10:45:15;;;;;;;12.43;2.20;;;;;;;;;;5053057;28;20554;-78
2022/12/27 10:47:42;;;;;;;12.13;1.92;;;;;;;;;;5052295;28;20114;-77
2022/12/27 10:50:12;;;;;;;8.07;1.80;;;;;;;;;;5070080;28;20045;-78
2022/12/27 10:52:38;;;;;;;6.97;1.70;;;;;;;;;;5052132;28;20489;-78
2022/12/27 10:55:04;;;;;;;10.68;1.90;;;;;;;;;;5069441;28;20067;-78
2022/12/27 10:57:35;;;;;;;8.60;1.88;;;;;;;;;;5052671;28;20064;-78
2022/12/27 11:00:21;;;;;;;14.13;2.00;;;;;;;;;;5051772;28;20033;-77
2022/12/27 11:02:47;;;;;;;;;;;;;;;;;;5085681;28;20166;-77
2022/12/27 11:05:19;;;;;;;8.25;1.58;;;;;;;;;;5035815;28;19965;-77
2022/12/27 11:07:45;;;;;;;7.72;1.70;;;;;;;;;;5051750;28;20045;-77
2022/12/27 11:10:14;;;;;;;11.25;2.00;;;;;;;;;;5052027;28;20045;-78
2022/12/27 11:12:53;;;;;;;7.82;2.45;;;;;;;;;;5051762;28;20045;-77
2022/12/27 11:15:20;;;;;;;9.77;2.42;;;;;;;;;;5053602;28;20052;-78
2022/12/27 11:17:51;;;;;;;8.00;2.50;;;;;;;;;;5052156;28;20045;-78
2022/12/27 11:20:26;;;;;;;12.77;2.33;;;;;;;;;;5051877;28;20037;-78
2022/12/27 11:22:55;;;;;;;10.88;2.42;;;;;;;;;;5052786;28;20076;-78
2022/12/27 11:25:22;;;;;;;10.40;2.38;;;;;;;;;;5035590;28;20041;-78
2022/12/27 11:27:52;;;;;;;9.32;2.33;;;;;;;;;;5052988;28;20051;-78
2022/12/27 11:30:23;;;;;;;10.73;2.38;;;;;;;;;;5053750;28;20037;-78
2022/12/27 11:32:50;;;;;;;12.85;2.30;;;;;;;;;;5051576;28;20064;-78
2022/12/27 11:35:20;;;;;;;14.20;2.28;;;;;;;;;;5050122;28;20048;-78
2022/12/27 11:37:47;;;;;;;10.68;1.98;;;;;;;;;;5051342;28;20090;-78
2022/12/27 11:40:34;;;;;;;12.27;2.30;;;;;;;;;;5053132;28;20060;-78
2022/12/27 11:43:04;;;;;;;10.73;1.95;;;;;;;;;;5051551;28;20037;-78
2022/12/27 11:45:38;;;;;;;10.40;2.08;;;;;;;;;;5051525;28;20106;-78
2022/12/27 11:48:04;;;;;;;9.75;2.05;;;;;;;;;;5052038;28;20048;-77
2022/12/27 11:50:39;;;;;;;10.85;2.53;;;;;;;;;;5051521;28;20037;-78
2022/12/27 11:53:24;;;;;;;9.35;2.45;;;;;;;;;;5051428;28;20128;-78
2022/12/27 11:56:05;;;;;;;9.05;2.58;;;;;;;;;;5052641;28;20044;-78
2022/12/27 11:58:43;;;;;;;13.20;2.50;;;;;;;;;;5040171;28;20112;-77
2022/12/27 12:01:26;;;;;;;14.95;2.80;;;;;;;;;;5051660;28;20095;-77
2022/12/27 12:03:52;;;;;;;10.90;2.70;;;;;;;;;;5034655;28;20041;-78
2022/12/27 12:06:37;;;;;;;11.50;2.45;;;;;;;;;;5051602;28;20502;-78
2022/12/27 12:09:18;;;;;;;8.75;2.53;;;;;;;;;;5034388;28;20049;-77
2022/12/27 12:11:44;;;;;;;12.25;2.90;;;;;;;;;;5050074;28;20091;-76
2022/12/27 12:14:31;;;;;;;11.85;2.72;;;;;;;;;;5051562;28;20093;-79
2022/12/27 12:17:17;;;;;;;14.30;3.25;;;;;;;;;;5034299;28;20072;-77
2022/12/27 12:19:46;;;;;;;13.13;3.35;;;;;;;;;;5081117;28;20411;-77
2022/12/27 12:22:28;;;;;;;15.68;2.75;;;;;;;;;;5037372;28;20116;-78
2022/12/27 12:24:54;;;;;;;9.77;2.75;;;;;;;;;;5050784;28;20044;-78
2022/12/27 12:27:27;;;;;;;9.82;2.60;;;;;;;;;;5052676;28;20556;-79
2022/12/27 12:29:53;;;;;;;11.05;3.22;;;;;;;;;;5051151;28;20048;-78
2022/12/27 12:32:37;;;;;;;10.77;3.33;;;;;;;;;;5050995;28;20053;-77
2022/12/27 12:35:13;;;;;;;9.35;3.00;;;;;;;;;;5049021;28;20052;-77
2022/12/27 12:37:39;;;;;;;11.18;3.08;;;;;;;;;;5051627;28;20493;-77
2022/12/27 12:40:23;;;;;;;10.68;3.28;;;;;;;;;;5050592;28;20108;-77
2022/12/27 12:43:19;;;;;;;15.15;3.88;;;;;;;;;;5071985;28;20040;-77
2022/12/27 12:45:48;;;;;;;16.50;3.70;;;;;;;;;;5046672;28;20517;-77
2022/12/27 12:48:14;;;;;;;10.43;3.42;;;;;;;;;;5024997;28;20041;-77
2022/12/27 12:51:06;;;;;;;12.63;3.83;;;;;;;;;;5051015;28;20049;-77
2022/12/27 12:53:42;;;;;;;12.52;4.15;;;;;;;;;;5050837;28;20406;-77
2022/12/27 12:56:07;;;;;;;;;;;;;;;;;;5050667;28;20041;-78
2022/12/27 12:58:39;;;;;;;15.93;4.60;;;;;;;;;;5067585;28;19939;-78
2022/12/27 13:01:08;;;;;;;11.75;4.05;;;;;;;;;;5050564;28;20147;-78
2022/12/27 13:03:53;;;;;;;18.48;4.18;;;;;;;;;;5050988;28;20036;-78
2022/12/27 13:06:25;;;;;;;15.02;5.05;;;;;;;;;;5050622;28;20045;-77
2022/12/27 13:08:54;;;;;;;14.10;4.57;;;;;;;;;;5050398;28;20049;-77
2022/12/27 13:11:20;;;;;;;16.25;4.57;;;;;;;;;;5050424;28;20048;-77
2022/12/27 13:13:59;;;;;;;14.32;4.47;;;;;;;;;;5050587;28;20045;-78
2022/12/27 13:16:29;;;;;;;16.48;5.80;;;;;;;;;;5050478;28;20040;-78
2022/12/27 13:19:14;;;;;;;12.88;4.45;;;;;;;;;;5050456;28;20490;-77
2022/12/27 13:21:59;;;;;;;12.93;4.38;;;;;;;;;;5033789;28;20045;-77
2022/12/27 13:24:25;;;;;;;14.23;5.10;;;;;;;;;;5054180;28;20066;-78
2022/12/27 13:26:51;;;;;;;17.25;5.20;;;;;;;;;;5037325;28;20099;-77
2022/12/27 13:29:23;;;;;;;16.73;4.90;;;;;;;;;;5054143;28;20041;-78
2022/12/27 13:31:57;;;;;;;19.83;5.13;;;;;;;;;;5087307;28;20049;-77
2022/12/27 13:34:24;;;;;;;16.40;5.07;;;;;;;;;;5052361;28;20486;-78
2022/12/27 13:36:50;;;;;;;16.73;6.03;;;;;;;;;;5053939;28;20064;-77
2022/12/27 13:39:25;;;;;;;13.07;4.68;;;;;;;;;;5053906;28;20037;-78
2022/12/27 13:42:03;;;;;;;15.25;5.10;;;;;;;;;;5054341;28;20047;-78
2022/12/27 13:44:48;;;;;;;14.00;5.10;;;;;;;;;;5053952;28;20124;-78
2022/12/27 13:47:28;;;;;;;14.45;5.25;;;;;;;;;;5053909;28;20616;-78
2022/12/27 13:50:10;;;;;;;15.73;6.28;;;;;;;;;;5053866;28;20124;-77
2022/12/27 13:52:42;;;;;;;18.25;6.63;;;;;;;;;;5053844;28;20410;-78
2022/12/27 13:55:31;;;;;;;17.88;6.35;;;;;;;;;;5053836;28;20094;-77
2022/12/27 13:58:03;;;;;;;14.65;6.88;;;;;;;;;;5053276;28;20047;-77
2022/12/27 14:00:52;;;;;;;18.05;6.90;;;;;;;;;;5053604;28;20101;-78
2022/12/27 14:03:22;;;;;;;20.80;8.13;;;;;;;;;;5086800;28;20048;-77
2022/12/27 14:06:00;;;;;;;14.85;7.45;;;;;;;;;;5053886;28;20052;-77
2022/12/27 14:08:35;;;;;;;20.67;8.10;;;;;;;;;;5037327;28;20541;-77
2022/12/27 14:11:02;;;;;;;17.67;8.02;;;;;;;;;;5053323;28;20049;-77
2022/12/27 14:13:36;;;;;;;18.70;8.75;;;;;;;;;;5053222;28;20052;-78
2022/12/27 14:16:02;;;;;;;20.05;7.28;;;;;;;;;;5053135;28;20045;-77
2022/12/27 14:18:51;;;;;;;16.08;8.02;;;;;;;;;;5036800;28;20044;-78
2022/12/27 14:21:24;;;;;;;17.05;7.43;;;;;;;;;;5084060;28;20057;-78
2022/12/27 14:23:56;;;;;;;20.02;7.43;;;;;;;;;;5053268;28;20137;-77
2022/12/27 14:26:40;;;;;;;14.43;7.95;;;;;;;;;;5053065;28;20052;-77
2022/12/27 14:29:12;;;;;;;17.73;8.30;;;;;;;;;;5039894;28;20049;-78
2022/12/27 14:32:02;;;;;;;18.80;8.38;;;;;;;;;;5052976;28;20102;-78
2022/12/27 14:34:28;;;;;;;17.08;7.95;;;;;;;;;;5056101;28;20037;-78
2022/12/27 14:37:12;;;;;;;20.50;7.82;;;;;;;;;;5052967;28;20045;-78
2022/12/27 14:39:49;;;;;;;17.20;8.23;;;;;;;;;;5052806;28;20037;-78
2022/12/27 14:42:35;;;;;;;13.15;7.47;;;;;;;;;;5035816;28;20041;-77
2022/12/27 14:45:01;;;;;;;16.50;7.90;;;;;;;;;;5052648;28;20045;-78
2022/12/27 14:47:34;;;;;;;18.42;7.80;;;;;;;;;;5036267;28;20045;-77
2022/12/27 14:50:18;;;;;;;20.75;8.20;;;;;;;;;;5048835;28;20048;-77
2022/12/27 14:52:47;;;;;;;17.50;8.70;;;;;;;;;;5052699;28;20044;-77
2022/12/27 14:55:35;;;;;;;22.25;8.60;;;;;;;;;;5052482;28;20048;-77
2022/12/27 14:58:04;;;;;;;17.73;8.40;;;;;;;;;;5052393;28;20044;-77
2022/12/27 15:00:47;;;;;;;20.67;8.65;;;;;;;;;;5053098;28;20569;-78
2022/12/27 15:03:20;;;;;;;16.98;9.32;;;;;;;;;;5052495;28;20032;-78
2022/12/27 15:05:46;;;;;;;18.77;9.43;;;;;;;;;;5052492;28;20041;-78
2022/12/27 15:08:23;;;;;;;20.80;9.10;;;;;;;;;;5035518;28;20083;-77
2022/12/27 15:11:04;;;;;;;16.92;9.05;;;;;;;;;;5052573;28;20076;-77
2022/12/27 15:13:30;;;;;;;25.70;10.40;;;;;;;;;;5052102;28;20048;-77
2022/12/27 15:16:08;;;;;;;18.48;9.88;;;;;;;;;;5052255;28;20047;-77
2022/12/27 15:18:43;;;;;;;18.00;9.48;;;;;;;;;;5052205;28;20041;-77
2022/12/27 15:21:15;;;;;;;19.80;7.75;;;;;;;;;;5051933;28;20043;-77
2022/12/27 15:23:41;;;;;;;24.58;10.40;;;;;;;;;;5052048;28;20045;-78
2022/12/27 15:26:25;;;;;;;25.00;10.80;;;;;;;;;;5051960;28;20414;-78
2022/12/27 15:28:55;;;;;;;20.75;10.50;;;;;;;;;;5051897;28;20041;-78
2022/12/27 15:31:31;;;;;;;23.08;11.65;;;;;;;;;;5062795;28;20056;-77
2022/12/27 15:34:00;;;;;;;22.10;11.25;;;;;;;;;;5050983;28;20055;-77
2022/12/27 15:36:40;;;;;;;24.67;10.52;;;;;;;;;;5051545;28;20052;-77
2022/12/27 15:39:26;;;;;;;19.30;10.52;;;;;;;;;;5051933;28;20048;-77
2022/12/27 15:42:04;;;;;;;23.52;10.50;;;;;;;;;;5051723;28;20075;-77
2022/12/27 15:44:36;;;;;;;17.60;10.32;;;;;;;;;;5051369;28;20059;-77
2022/12/27 15:47:02;;;;;;;26.70;11.20;;;;;;;;;;5051546;28;20068;-78
2022/12/27 15:49:37;;;;;;;21.65;11.27;;;;;;;;;;5051495;28;20517;-77
2022/12/27 15:52:18;;;;;;;20.00;10.65;;;;;;;;;;5034804;28;20037;-77
2022/12/27 15:55:00;;;;;;;23.00;11.18;;;;;;;;;;5035204;28;20072;-77
2022/12/27 15:57:52;;;;;;;18.33;11.00;;;;;;;;;;5051144;28;20040;-77
2022/12/27 16:00:26;;;;;;;26.23;11.88;;;;;;;;;;5048402;28;20051;-77
2022/12/27 16:02:55;;;;;;;26.02;11.27;;;;;;;;;;5051516;28;20498;-77
2022/12/27 16:05:21;;;;;;;21.27;12.00;;;;;;;;;;5051180;28;20052;-77
2022/12/27 16:07:49;;;;;;;24.33;13.05;;;;;;;;;;5051616;28;20511;-79
2022/12/27 16:10:31;;;;;;;20.15;11.38;;;;;;;;;;5051199;28;20052;-77
2022/12/27 16:13:12;;;;;;;24.58;11.50;;;;;;;;;;5051127;28;20045;-77
2022/12/27 16:15:39;;;;;;;26.65;11.63;;;;;;;;;;5051323;28;20055;-77
2022/12/27 16:18:10;;;;;;;30.83;13.18;;;;;;;;;;5034611;28;20033;-77
2022/12/27 16:20:36;;;;;;;26.90;12.98;;;;;;;;;;5050808;28;20037;-76
2022/12/27 16:23:03;;;;;;;27.48;13.80;;;;;;;;;;5050992;28;20044;-76
2022/12/27 16:25:40;;;;;;;32.10;14.70;;;;;;;;;;5052241;28;20080;-76
2022/12/27 16:28:15;;;;;;;29.05;13.82;;;;;;;;;;5051603;28;20493;-77
2022/12/27 16:30:43;;;;;;;27.98;14.20;;;;;;;;;;5037052;28;20045;-77